Time;durP1;ratioP1;P1;durP2;ratioP2;P2;SDS_P1;SDS_P2;PMS_P1;PMS_P2;Temp;Humidity;BMP_temperature;BMP_pressure;BME280_temperature;BME280_humidity;BME280_pressure;Samples;Min_cycle;Max_cycle;Signal;HPM_P1;HPM_P2
2023/08/20 00:00:58;;;;;;;;;;;24.00;82.60;;;;;;4182362;28;19932;-56
2023/08/20 00:03:41;;;;;;;;;;;24.00;82.50;;;;;;4188445;28;19936;-56
2023/08/20 00:06:22;;;;;;;;;;;24.00;83.40;;;;;;4187771;28;19931;-53
2023/08/20 00:09:06;;;;;;;;;;;23.90;82.50;;;;;;4197086;28;19930;-55
2023/08/20 00:11:47;;;;;;;;;;;24.00;82.50;;;;;;4203764;28;19931;-55
2023/08/20 00:14:42;;;;;;;;;;;23.90;82.40;;;;;;4204549;28;19966;-56
2023/08/20 00:17:26;;;;;;;;;;;23.90;82.50;;;;;;4180222;28;19935;-57
2023/08/20 00:20:12;;;;;;;;;;;23.90;82.50;;;;;;4187029;28;19973;-56
2023/08/20 00:22:53;;;;;;;;;;;23.90;82.50;;;;;;4186609;28;19936;-56
2023/08/20 00:25:35;;;;;;;;;;;23.90;82.50;;;;;;4175377;28;19979;-56
2023/08/20 00:28:16;;;;;;;;;;;23.90;83.40;;;;;;4187941;28;19931;-56
2023/08/20 00:30:56;;;;;;;;;;;23.90;82.50;;;;;;4187590;28;19932;-57
2023/08/20 00:33:38;;;;;;;;;;;23.90;82.50;;;;;;4186266;28;19931;-57
2023/08/20 00:36:20;;;;;;;;;;;23.90;83.40;;;;;;4175071;28;19984;-55
2023/08/20 00:39:01;;;;;;;;;;;23.80;82.50;;;;;;4204109;27;20062;-54
2023/08/20 00:41:42;;;;;;;;;;;23.80;82.50;;;;;;4204411;28;19968;-55
2023/08/20 00:44:23;;;;;;;;;;;23.80;82.50;;;;;;4202823;28;20013;-57
2023/08/20 00:47:05;;;;;;;;;;;23.80;82.50;;;;;;4192864;28;19946;-55
2023/08/20 00:49:46;;;;;;;;;;;23.80;82.50;;;;;;4204178;27;19997;-57
2023/08/20 00:52:29;;;;;;;;;;;23.80;82.40;;;;;;4204539;28;19981;-57
2023/08/20 00:55:11;;;;;;;;;;;23.70;82.40;;;;;;4199595;28;19940;-57
2023/08/20 00:57:52;;;;;;;;;;;23.70;83.20;;;;;;4183250;28;19931;-58
2023/08/20 01:00:33;;;;;;;;;;;23.70;82.40;;;;;;4186757;28;19934;-57
2023/08/20 01:03:13;;;;;;;;;;;23.70;82.30;;;;;;4187002;28;19930;-56
2023/08/20 01:05:56;;;;;;;;;;;23.70;82.30;;;;;;4185485;28;20322;-55
2023/08/20 01:08:40;;;;;;;;;;;23.70;82.40;;;;;;4187081;28;19935;-54
2023/08/20 01:11:22;;;;;;;;;;;23.70;82.40;;;;;;4221163;28;20057;-53
2023/08/20 01:14:03;;;;;;;;;;;23.70;82.40;;;;;;4202863;28;19998;-53
2023/08/20 01:16:44;;;;;;;;;;;23.70;82.40;;;;;;4183726;28;19969;-56
2023/08/20 01:19:25;;;;;;;;;;;23.70;82.40;;;;;;4204534;28;19969;-55
2023/08/20 01:22:14;;;;;;;;;;;23.60;82.40;;;;;;4203623;27;19931;-55
2023/08/20 01:25:01;;;;;;;;;;;23.70;82.50;;;;;;4180721;28;20051;-55
2023/08/20 01:27:46;;;;;;;;;;;23.60;82.50;;;;;;4207187;27;20648;-54
2023/08/20 01:30:28;;;;;;;;;;;23.60;82.50;;;;;;4207227;28;19931;-55
2023/08/20 01:33:11;;;;;;;;;;;23.60;82.50;;;;;;4198542;28;19947;-55
2023/08/20 01:35:52;;;;;;;;;;;23.60;82.50;;;;;;4191122;28;19935;-44
2023/08/20 01:38:33;;;;;;;;;;;23.60;82.50;;;;;;4189618;28;20094;-45
2023/08/20 01:41:16;;;;;;;;;;;23.60;82.50;;;;;;4188530;28;20457;-45
2023/08/20 01:43:57;;;;;;;;;;;23.60;82.60;;;;;;4189911;28;19931;-45
2023/08/20 01:46:40;;;;;;;;;;;23.60;82.50;;;;;;4187632;28;19975;-44
2023/08/20 01:49:20;;;;;;;;;;;23.60;82.50;;;;;;4189520;28;19974;-45
2023/08/20 01:52:01;;;;;;;;;;;23.60;82.50;;;;;;4174064;28;20442;-45
2023/08/20 01:54:42;;;;;;;;;;;23.50;82.50;;;;;;4189816;28;19969;-46
2023/08/20 01:57:24;;;;;;;;;;;23.50;82.50;;;;;;4188866;28;19932;-45
2023/08/20 02:00:06;;;;;;;;;;;23.50;82.50;;;;;;4202955;28;19937;-44
2023/08/20 02:02:54;;;;;;;;;;;23.50;83.30;;;;;;4201404;28;19951;-45
2023/08/20 02:05:35;;;;;;;;;;;23.50;82.50;;;;;;4205529;28;19931;-46
2023/08/20 02:08:19;;;;;;;;;;;23.50;82.40;;;;;;4206886;28;19931;-46
2023/08/20 02:11:09;;;;;;;;;;;23.50;82.50;;;;;;4172749;28;19936;-45
2023/08/20 02:13:49;;;;;;;;;;;23.50;82.50;;;;;;4184679;28;20017;-45
2023/08/20 02:16:30;;;;;;;;;;;23.40;82.40;;;;;;4189236;28;20009;-46
2023/08/20 02:19:13;;;;;;;;;;;23.40;82.40;;;;;;4192268;28;19946;-46
2023/08/20 02:21:54;;;;;;;;;;;23.40;82.40;;;;;;4191154;28;20402;-45
2023/08/20 02:24:35;;;;;;;;;;;23.40;82.50;;;;;;4189580;28;20047;-45
2023/08/20 02:27:16;;;;;;;;;;;23.40;82.40;;;;;;4190011;28;19946;-46
2023/08/20 02:29:57;;;;;;;;;;;23.40;82.40;;;;;;4177669;28;20010;-46
2023/08/20 02:32:37;;;;;;;;;;;23.40;82.40;;;;;;4189523;28;19931;-45
2023/08/20 02:35:19;;;;;;;;;;;23.40;82.40;;;;;;4189415;28;19936;-54
2023/08/20 02:38:03;;;;;;;;;;;23.30;82.30;;;;;;4192757;28;19997;-55
2023/08/20 02:40:46;;;;;;;;;;;23.40;82.40;;;;;;4206837;27;19953;-57
2023/08/20 02:43:27;;;;;;;;;;;23.30;82.30;;;;;;4198335;28;20138;-57
2023/08/20 02:46:07;;;;;;;;;;;23.30;82.30;;;;;;4189530;28;19947;-57
2023/08/20 02:48:48;;;;;;;;;;;23.30;82.40;;;;;;4189623;28;19936;-56
2023/08/20 02:51:30;;;;;;;;;;;23.30;82.40;;;;;;4188070;28;20666;-57
2023/08/20 02:54:11;;;;;;;;;;;23.30;82.50;;;;;;4187664;28;19935;-56
2023/08/20 02:56:52;;;;;;;;;;;23.30;82.50;;;;;;4193467;28;19931;-56
2023/08/20 02:59:34;;;;;;;;;;;23.30;82.50;;;;;;4171651;28;19935;-58
2023/08/20 03:02:14;;;;;;;;;;;23.30;82.40;;;;;;4167714;28;19955;-56
2023/08/20 03:04:56;;;;;;;;;;;23.30;82.30;;;;;;4189134;28;19931;-54
2023/08/20 03:07:38;;;;;;;;;;;23.30;83.10;;;;;;4188404;28;20382;-47
2023/08/20 03:10:19;;;;;;;;;;;23.30;82.20;;;;;;4187812;28;19935;-46
2023/08/20 03:13:00;;;;;;;;;;;23.20;82.00;;;;;;4187428;28;19993;-46
2023/08/20 03:15:41;;;;;;;;;;;23.20;81.90;;;;;;4181275;28;19971;-46
2023/08/20 03:18:22;;;;;;;;;;;23.20;81.80;;;;;;4189562;28;19935;-46
2023/08/20 03:21:02;;;;;;;;;;;23.20;81.80;;;;;;4182462;28;20329;-47
2023/08/20 03:23:45;;;;;;;;;;;23.20;81.80;;;;;;4187422;28;20394;-48
2023/08/20 03:26:26;;;;;;;;;;;23.10;81.70;;;;;;4196565;28;19976;-47
2023/08/20 03:29:06;;;;;;;;;;;23.10;81.70;;;;;;4226053;27;19935;-49
2023/08/20 03:31:48;;;;;;;;;;;23.10;82.60;;;;;;4204113;28;20073;-47
2023/08/20 03:34:29;;;;;;;;;;;23.10;81.80;;;;;;4170514;28;20799;-46
2023/08/20 03:37:10;;;;;;;;;;;23.10;81.80;;;;;;4194325;28;20280;-47
2023/08/20 03:39:52;;;;;;;;;;;23.10;81.90;;;;;;4157192;28;19935;-47
2023/08/20 03:42:33;;;;;;;;;;;23.10;81.90;;;;;;4176982;28;20058;-45
2023/08/20 03:45:14;;;;;;;;;;;23.10;81.90;;;;;;4192083;28;19935;-44
2023/08/20 03:47:55;;;;;;;;;;;23.10;82.00;;;;;;4224747;27;19934;-47
2023/08/20 03:50:36;;;;;;;;;;;23.10;82.10;;;;;;4188924;28;20142;-46
2023/08/20 03:53:17;;;;;;;;;;;23.10;82.10;;;;;;4201086;28;20066;-47
2023/08/20 03:55:59;;;;;;;;;;;23.00;82.10;;;;;;4203680;28;19931;-49
2023/08/20 03:58:39;;;;;;;;;;;23.00;82.10;;;;;;4204208;28;19935;-51
2023/08/20 04:01:20;;;;;;;;;;;23.00;82.10;;;;;;4189812;28;19931;-50
2023/08/20 04:04:01;;;;;;;;;;;23.00;82.10;;;;;;4187377;28;20283;-50
2023/08/20 04:06:42;;;;;;;;;;;23.00;83.10;;;;;;4156107;28;19940;-50
2023/08/20 04:09:23;;;;;;;;;;;23.00;82.20;;;;;;4171335;28;20260;-50
2023/08/20 04:12:05;;;;;;;;;;;23.00;82.30;;;;;;4176421;28;19936;-56
2023/08/20 04:14:46;;;;;;;;;;;23.00;82.30;;;;;;4171083;28;20295;-57
2023/08/20 04:17:27;;;;;;;;;;;23.00;82.30;;;;;;4172471;28;19932;-55
2023/08/20 04:20:09;;;;;;;;;;;23.00;82.30;;;;;;4159025;28;19932;-53
2023/08/20 04:22:50;;;;;;;;;;;23.00;82.30;;;;;;4184382;28;20427;-57
2023/08/20 04:25:31;;;;;;;;;;;22.90;82.70;;;;;;4205065;28;19931;-56
2023/08/20 04:28:12;;;;;;;;;;;23.00;82.30;;;;;;4204607;28;19951;-54
2023/08/20 04:30:54;;;;;;;;;;;23.00;82.30;;;;;;4203752;28;20440;-56
2023/08/20 04:33:37;;;;;;;;;;;23.00;82.30;;;;;;4189777;28;20286;-55
2023/08/20 04:36:17;;;;;;;;;;;22.90;82.30;;;;;;4203002;28;19931;-54
2023/08/20 04:38:59;;;;;;;;;;;22.90;83.10;;;;;;4204810;28;19970;-56
2023/08/20 04:41:40;;;;;;;;;;;22.90;82.20;;;;;;4191067;28;20474;-53
2023/08/20 04:44:27;;;;;;;;;;;22.90;82.30;;;;;;4172763;28;19932;-56
2023/08/20 04:47:11;;;;;;;;;;;22.90;82.30;;;;;;4170137;28;20295;-56
2023/08/20 04:49:52;;;;;;;;;;;22.90;82.30;;;;;;4173124;28;19952;-53
2023/08/20 04:52:33;;;;;;;;;;;22.90;82.30;;;;;;4186419;28;20089;-53
2023/08/20 04:55:15;;;;;;;;;;;22.90;82.30;;;;;;4171470;28;19932;-52
2023/08/20 04:57:56;;;;;;;;;;;22.90;82.20;;;;;;4186266;28;19930;-52
2023/08/20 05:00:39;;;;;;;;;;;22.90;83.10;;;;;;4187158;28;19967;-47
2023/08/20 05:03:24;;;;;;;;;;;22.90;82.30;;;;;;4169716;28;19935;-47
2023/08/20 05:06:05;;;;;;;;;;;22.80;82.20;;;;;;4169641;28;19936;-47
2023/08/20 05:08:46;;;;;;;;;;;22.80;82.20;;;;;;4172830;28;19932;-47
2023/08/20 05:11:28;;;;;;;;;;;22.80;82.30;;;;;;4170876;28;19935;-46
2023/08/20 05:14:09;;;;;;;;;;;22.80;83.10;;;;;;4186562;28;19935;-47
2023/08/20 05:16:51;;;;;;;;;;;22.80;82.30;;;;;;4187581;28;19932;-45
2023/08/20 05:19:31;;;;;;;;;;;22.80;82.30;;;;;;4171189;28;19936;-48
2023/08/20 05:22:12;;;;;;;;;;;22.80;82.60;;;;;;4187916;28;20333;-47
2023/08/20 05:24:53;;;;;;;;;;;22.90;82.80;;;;;;4186282;28;19953;-47
2023/08/20 05:27:34;;;;;;;;;;;22.90;82.80;;;;;;4184317;28;19932;-46
2023/08/20 05:30:18;;;;;;;;;;;22.90;82.80;;;;;;4179446;28;19931;-47
2023/08/20 05:32:59;;;;;;;;;;;22.90;82.70;;;;;;4187328;28;19935;-47
2023/08/20 05:35:45;;;;;;;;;;;23.00;82.70;;;;;;4185744;28;19985;-47
2023/08/20 05:38:26;;;;;;;;;;;23.00;82.60;;;;;;4186201;28;19936;-58
2023/08/20 05:41:06;;;;;;;;;;;23.00;82.50;;;;;;4186105;28;19961;-57
2023/08/20 05:43:47;;;;;;;;;;;23.00;82.30;;;;;;4167132;28;20104;-46
2023/08/20 05:46:28;;;;;;;;;;;23.10;82.10;;;;;;4187513;28;20386;-47
2023/08/20 05:49:10;;;;;;;;;;;23.10;82.20;;;;;;4209447;28;19932;-47
2023/08/20 05:51:51;;;;;;;;;;;23.10;81.80;;;;;;4187791;28;19935;-47
2023/08/20 05:54:32;;;;;;;;;;;23.20;81.50;;;;;;4170546;28;20394;-46
2023/08/20 05:57:13;;;;;;;;;;;23.20;81.20;;;;;;4184696;28;19932;-47
2023/08/20 05:59:54;;;;;;;;;;;23.30;80.80;;;;;;4165250;28;19932;-46
2023/08/20 06:02:35;;;;;;;;;;;23.30;80.50;;;;;;4167014;28;20299;-47
2023/08/20 06:05:19;;;;;;;;;;;23.40;80.20;;;;;;4173255;28;19935;-58
2023/08/20 06:08:00;;;;;;;;;;;23.40;79.80;;;;;;4183883;28;20402;-50
2023/08/20 06:10:41;;;;;;;;;;;23.40;79.50;;;;;;4161681;28;19932;-52
2023/08/20 06:13:22;;;;;;;;;;;23.40;79.10;;;;;;4153240;28;19952;-45
2023/08/20 06:16:02;;;;;;;;;;;23.50;79.00;;;;;;4138264;28;19932;-49
2023/08/20 06:18:43;;;;;;;;;;;23.50;79.00;;;;;;4138523;28;19936;-46
2023/08/20 06:21:25;;;;;;;;;;;23.50;78.90;;;;;;4179691;28;19936;-49
2023/08/20 06:24:06;;;;;;;;;;;23.50;78.60;;;;;;4171112;28;20335;-47
2023/08/20 06:26:47;;;;;;;;;;;23.60;78.60;;;;;;4170394;28;19932;-50
2023/08/20 06:29:28;;;;;;;;;;;23.60;78.60;;;;;;4172110;28;19931;-56
2023/08/20 06:32:09;;;;;;;;;;;23.60;78.40;;;;;;4206955;28;20458;-57
2023/08/20 06:34:50;;;;;;;;;;;23.60;78.20;;;;;;4206492;28;19947;-47
2023/08/20 06:37:32;;;;;;;;;;;23.60;77.90;;;;;;4193313;28;19977;-57
2023/08/20 06:40:14;;;;;;;;;;;23.70;77.80;;;;;;4189482;28;19936;-57
2023/08/20 06:42:55;;;;;;;;;;;23.70;77.70;;;;;;4188504;28;20597;-57
2023/08/20 06:45:36;;;;;;;;;;;23.70;77.60;;;;;;4190562;28;19932;-57
2023/08/20 06:48:19;;;;;;;;;;;23.70;77.50;;;;;;4189377;28;19939;-56
2023/08/20 06:51:08;;;;;;;;;;;23.70;77.40;;;;;;4189453;28;20355;-58
2023/08/20 06:53:50;;;;;;;;;;;23.80;77.50;;;;;;4188539;28;19932;-47
2023/08/20 06:56:31;;;;;;;;;;;23.80;78.20;;;;;;4193770;28;19935;-45
2023/08/20 06:59:12;;;;;;;;;;;23.80;77.30;;;;;;4200755;28;20393;-45
2023/08/20 07:01:52;;;;;;;;;;;23.90;77.60;;;;;;4202542;28;20275;-58
2023/08/20 07:04:33;;;;;;;;;;;23.90;78.70;;;;;;4195937;28;20042;-57
2023/08/20 07:07:15;;;;;;;;;;;23.90;77.90;;;;;;4180511;28;19948;-46
2023/08/20 07:09:58;;;;;;;;;;;24.00;77.70;;;;;;4183465;28;20453;-46
2023/08/20 07:12:39;;;;;;;;;;;24.00;77.60;;;;;;4172151;28;19936;-45
2023/08/20 07:15:20;;;;;;;;;;;24.00;77.50;;;;;;4188737;28;19935;-46
2023/08/20 07:18:01;;;;;;;;;;;24.10;77.60;;;;;;4171403;28;20018;-47
2023/08/20 07:20:42;;;;;;;;;;;24.10;77.60;;;;;;4172047;28;19935;-46
2023/08/20 07:23:23;;;;;;;;;;;24.10;77.70;;;;;;4172634;28;19936;-46
2023/08/20 07:26:06;;;;;;;;;;;24.10;77.80;;;;;;4172795;28;20296;-56
2023/08/20 07:28:59;;;;;;;;;;;24.10;78.70;;;;;;4189656;28;20366;-47
2023/08/20 07:31:41;;;;;;;;;;;24.10;77.80;;;;;;4204074;28;20435;-46
2023/08/20 07:34:22;;;;;;;;;;;24.10;77.80;;;;;;4205574;28;19930;-56
2023/08/20 07:37:02;;;;;;;;;;;24.10;77.80;;;;;;4192759;28;20026;-56
2023/08/20 07:39:44;;;;;;;;;;;24.10;77.90;;;;;;4188839;28;19931;-54
2023/08/20 07:42:26;;;;;;;;;;;24.10;77.90;;;;;;4158760;28;19931;-55
2023/08/20 07:45:07;;;;;;;;;;;24.10;77.90;;;;;;4172817;28;20467;-55
2023/08/20 07:47:48;;;;;;;;;;;24.10;77.90;;;;;;4177109;28;19938;-54
2023/08/20 07:50:29;;;;;;;;;;;24.10;77.90;;;;;;4188489;28;19935;-54
2023/08/20 07:53:10;;;;;;;;;;;24.10;78.00;;;;;;4188973;28;19935;-55
2023/08/20 07:55:50;;;;;;;;;;;24.10;78.90;;;;;;4184358;28;20036;-54
2023/08/20 07:58:33;;;;;;;;;;;24.10;78.20;;;;;;4173534;28;19939;-57
2023/08/20 08:01:14;;;;;;;;;;;24.10;78.40;;;;;;4188851;28;20025;-57
2023/08/20 08:03:54;;;;;;;;;;;24.10;78.50;;;;;;4188443;28;20478;-57
2023/08/20 08:06:35;;;;;;;;;;;24.10;78.70;;;;;;4186051;28;19931;-54
2023/08/20 08:09:19;;;;;;;;;;;24.10;78.60;;;;;;4188646;28;19994;-55
2023/08/20 08:12:00;;;;;;;;;;;24.10;78.60;;;;;;4191564;28;19934;-57
2023/08/20 08:14:42;;;;;;;;;;;24.10;78.60;;;;;;4205149;28;20444;-57
2023/08/20 08:17:23;;;;;;;;;;;24.10;78.70;;;;;;4204842;27;19935;-57
2023/08/20 08:20:04;;;;;;;;;;;24.10;78.70;;;;;;4189174;28;19946;-57
2023/08/20 08:22:45;;;;;;;;;;;24.10;78.70;;;;;;4172751;28;19932;-57
2023/08/20 08:25:25;;;;;;;;;;;24.10;78.70;;;;;;4172790;28;19936;-54
2023/08/20 08:28:06;;;;;;;;;;;24.10;78.70;;;;;;4188466;28;19931;-56
2023/08/20 08:30:49;;;;;;;;;;;24.10;78.70;;;;;;4174326;28;20333;-57
2023/08/20 08:33:29;;;;;;;;;;;24.10;78.60;;;;;;4187705;28;19932;-57
2023/08/20 08:36:11;;;;;;;;;;;24.20;78.60;;;;;;4189749;27;20308;-57
2023/08/20 08:38:51;;;;;;;;;;;24.20;78.40;;;;;;4186627;28;19993;-47
2023/08/20 08:41:33;;;;;;;;;;;24.20;78.30;;;;;;4187961;28;20283;-46
2023/08/20 08:44:13;;;;;;;;;;;24.20;78.10;;;;;;4187474;28;19958;-47
2023/08/20 08:46:56;;;;;;;;;;;24.20;78.00;;;;;;4200230;28;20041;-57
2023/08/20 08:49:37;;;;;;;;;;;24.30;77.90;;;;;;4204015;27;19980;-59
2023/08/20 08:52:19;;;;;;;;;;;24.30;77.80;;;;;;4204103;27;19985;-47
2023/08/20 08:55:00;;;;;;;;;;;24.30;77.70;;;;;;4184139;28;19936;-47
2023/08/20 08:57:40;;;;;;;;;;;24.30;77.50;;;;;;4176308;28;19931;-46
2023/08/20 09:00:21;;;;;;;;;;;24.30;77.20;;;;;;4203125;28;20336;-50
2023/08/20 09:03:03;;;;;;;;;;;24.30;77.80;;;;;;4204902;28;20562;-47
2023/08/20 09:05:48;;;;;;;;;;;24.40;76.90;;;;;;4202094;28;19934;-48
2023/08/20 09:08:29;;;;;;;;;;;24.40;76.80;;;;;;4178617;28;19931;-47
2023/08/20 09:11:10;;;;;;;;;;;24.40;76.80;;;;;;4187770;28;20029;-46
2023/08/20 09:13:51;;;;;;;;;;;24.40;76.50;;;;;;4187278;28;20009;-47
2023/08/20 09:16:32;;;;;;;;;;;24.50;76.30;;;;;;4170793;28;19932;-45
2023/08/20 09:19:14;;;;;;;;;;;24.50;75.90;;;;;;4171233;28;19936;-46
2023/08/20 09:21:55;;;;;;;;;;;24.50;75.70;;;;;;4169801;28;20395;-55
2023/08/20 09:24:42;;;;;;;;;;;24.50;75.40;;;;;;4177722;28;19931;-53
2023/08/20 09:27:23;;;;;;;;;;;24.50;75.30;;;;;;4186925;28;19931;-59
2023/08/20 09:30:04;;;;;;;;;;;24.50;74.90;;;;;;4170997;28;20280;-56
2023/08/20 09:32:45;;;;;;;;;;;24.50;75.40;;;;;;4174133;28;19977;-56
2023/08/20 09:35:27;;;;;;;;;;;24.60;74.50;;;;;;4175619;28;19952;-56
2023/08/20 09:38:08;;;;;;;;;;;24.60;74.50;;;;;;4186939;28;19966;-56
2023/08/20 09:40:50;;;;;;;;;;;24.70;74.40;;;;;;4170929;28;20433;-56
2023/08/20 09:43:31;;;;;;;;;;;24.60;74.30;;;;;;4186502;28;19935;-56
2023/08/20 09:46:12;;;;;;;;;;;24.70;74.20;;;;;;4188075;28;19963;-55
2023/08/20 09:48:56;;;;;;;;;;;24.70;73.80;;;;;;4190081;28;20023;-56
2023/08/20 09:51:40;;;;;;;;;;;24.70;73.60;;;;;;4189629;28;19932;-48
2023/08/20 09:54:22;;;;;;;;;;;24.80;73.60;;;;;;4189292;28;20078;-47
2023/08/20 09:57:08;;;;;;;;;;;24.80;73.60;;;;;;4188422;28;19934;-45
2023/08/20 09:59:49;;;;;;;;;;;24.80;73.60;;;;;;4189561;28;19990;-46
2023/08/20 10:02:30;;;;;;;;;;;24.80;73.60;;;;;;4173165;28;20079;-45
2023/08/20 10:05:12;;;;;;;;;;;24.90;73.60;;;;;;4185317;28;19931;-48
2023/08/20 10:07:55;;;;;;;;;;;24.90;73.40;;;;;;4172855;28;20272;-44
2023/08/20 10:10:36;;;;;;;;;;;24.90;73.30;;;;;;4156134;28;20064;-45
2023/08/20 10:13:18;;;;;;;;;;;25.00;73.20;;;;;;4171166;28;20462;-45
2023/08/20 10:15:59;;;;;;;;;;;25.00;72.90;;;;;;4157209;28;20604;-44
2023/08/20 10:18:40;;;;;;;;;;;25.00;72.50;;;;;;4191553;28;20406;-56
2023/08/20 10:21:24;;;;;;;;;;;25.00;72.50;;;;;;4171930;28;19931;-45
2023/08/20 10:24:06;;;;;;;;;;;25.00;72.50;;;;;;4156301;28;19975;-53
2023/08/20 10:26:48;;;;;;;;;;;25.00;72.60;;;;;;4172409;28;19936;-55
2023/08/20 10:29:36;;;;;;;;;;;25.00;73.40;;;;;;4183441;28;19932;-53
2023/08/20 10:32:16;;;;;;;;;;;25.00;72.50;;;;;;4187788;28;20517;-46
2023/08/20 10:34:58;;;;;;;;;;;25.00;73.00;;;;;;4188730;28;20386;-55
2023/08/20 10:37:40;;;;;;;;;;;25.00;73.30;;;;;;4203561;28;19989;-56
2023/08/20 10:40:47;;;;;;;;;;;25.00;73.20;;;;;;4206119;27;20058;-55
2023/08/20 10:43:31;;;;;;;;;;;25.00;73.20;;;;;;4170260;28;19948;-56
2023/08/20 10:46:16;;;;;;;;;;;25.00;73.70;;;;;;4169801;28;20103;-47
2023/08/20 10:48:58;;;;;;;;;;;25.00;72.60;;;;;;4172716;28;19931;-48
2023/08/20 10:51:40;;;;;;;;;;;25.00;72.50;;;;;;4173191;28;20602;-48
2023/08/20 10:54:21;;;;;;;;;;;25.10;72.60;;;;;;4194932;28;19999;-45
2023/08/20 10:57:05;;;;;;;;;;;25.10;72.40;;;;;;4170646;28;20021;-45
2023/08/20 10:59:56;;;;;;;;;;;25.10;72.40;;;;;;4173097;28;19935;-47
2023/08/20 11:02:37;;;;;;;;;;;25.10;72.30;;;;;;4172131;28;20379;-44
2023/08/20 11:05:18;;;;;;;;;;;25.10;72.40;;;;;;4180375;28;20456;-47
2023/08/20 11:07:59;;;;;;;;;;;25.10;72.30;;;;;;4189059;28;19966;-48
2023/08/20 11:10:40;;;;;;;;;;;25.20;72.30;;;;;;4187142;28;20013;-56
2023/08/20 11:13:22;;;;;;;;;;;25.20;72.10;;;;;;4189639;28;20067;-54
2023/08/20 11:16:03;;;;;;;;;;;25.20;72.10;;;;;;4196959;28;20081;-55
2023/08/20 11:18:44;;;;;;;;;;;25.20;71.80;;;;;;4187583;28;19977;-56
2023/08/20 11:21:25;;;;;;;;;;;25.20;71.70;;;;;;4204991;28;19947;-54
2023/08/20 11:24:06;;;;;;;;;;;25.30;71.60;;;;;;4190708;28;19936;-56
2023/08/20 11:26:47;;;;;;;;;;;25.30;71.40;;;;;;4176598;28;20295;-55
2023/08/20 11:29:31;;;;;;;;;;;25.30;71.40;;;;;;4188117;28;19939;-55
2023/08/20 11:32:11;;;;;;;;;;;25.30;71.20;;;;;;4192131;28;20058;-54
2023/08/20 11:34:53;;;;;;;;;;;25.30;71.00;;;;;;4203857;27;20403;-54
2023/08/20 11:37:33;;;;;;;;;;;25.30;71.00;;;;;;4204706;28;19935;-61
2023/08/20 11:40:14;;;;;;;;;;;25.40;71.60;;;;;;4204644;27;20062;-57
2023/08/20 11:42:55;;;;;;;;;;;25.40;72.20;;;;;;4202908;28;20008;-62
2023/08/20 11:45:46;;;;;;;;;;;25.40;71.10;;;;;;4183585;28;19939;-61
2023/08/20 11:48:27;;;;;;;;;;;25.50;71.20;;;;;;4171017;28;19959;-60
2023/08/20 11:51:07;;;;;;;;;;;25.60;70.90;;;;;;4157364;28;19932;-61
2023/08/20 11:53:48;;;;;;;;;;;25.60;71.00;;;;;;4173224;28;19970;-58
2023/08/20 11:56:31;;;;;;;;;;;25.60;70.90;;;;;;4155791;28;19944;-58
2023/08/20 11:59:16;;;;;;;;;;;25.60;70.90;;;;;;4172395;28;20006;-59
2023/08/20 12:01:59;;;;;;;;;;;25.60;70.70;;;;;;4181082;28;19931;-57
2023/08/20 12:04:40;;;;;;;;;;;25.70;70.70;;;;;;4205087;28;20371;-59
2023/08/20 12:07:21;;;;;;;;;;;25.80;70.20;;;;;;4204490;28;19931;-64
2023/08/20 12:10:19;;;;;;;;;;;25.80;69.80;;;;;;4204999;28;19936;-56
2023/08/20 12:13:00;;;;;;;;;;;25.80;69.80;;;;;;4202331;28;20390;-60
2023/08/20 12:15:41;;;;;;;;;;;25.80;69.70;;;;;;4201350;27;19981;-59
2023/08/20 12:18:24;;;;;;;;;;;25.80;69.60;;;;;;4177901;28;20337;-57
2023/08/20 12:21:04;;;;;;;;;;;25.90;69.50;;;;;;4198546;28;19947;-59
2023/08/20 12:23:45;;;;;;;;;;;25.90;69.20;;;;;;4197050;28;19946;-57
2023/08/20 12:26:25;;;;;;;;;;;26.00;69.30;;;;;;4171285;28;19963;-57
2023/08/20 12:29:06;;;;;;;;;;;26.00;69.30;;;;;;4173046;28;19931;-58
2023/08/20 12:31:47;;;;;;;;;;;26.00;69.10;;;;;;4164226;28;19935;-57
2023/08/20 12:34:29;;;;;;;;;;;26.10;68.90;;;;;;4187401;28;19946;-59
2023/08/20 12:37:10;;;;;;;;;;;26.00;68.90;;;;;;4178411;28;20035;-58
2023/08/20 12:39:50;;;;;;;;;;;26.10;69.00;;;;;;4171554;28;19936;-48
2023/08/20 12:42:31;;;;;;;;;;;26.10;69.00;;;;;;4185944;28;19970;-49
2023/08/20 12:45:13;;;;;;;;;;;26.10;68.80;;;;;;4188408;28;19935;-48
2023/08/20 12:47:54;;;;;;;;;;;26.20;68.80;;;;;;4187670;28;19951;-58
2023/08/20 12:50:36;;;;;;;;;;;26.20;68.40;;;;;;4202399;28;19973;-58
2023/08/20 12:53:17;;;;;;;;;;;26.30;68.10;;;;;;4204356;28;20486;-58
2023/08/20 12:55:58;;;;;;;;;;;26.30;67.70;;;;;;4179650;28;19934;-57
2023/08/20 12:58:38;;;;;;;;;;;26.30;67.60;;;;;;4212987;28;19940;-48
2023/08/20 13:01:19;;;;;;;;;;;26.30;68.40;;;;;;4187861;28;19973;-48
2023/08/20 13:04:00;;;;;;;;;;;26.40;67.30;;;;;;4200269;28;19935;-46
2023/08/20 13:06:43;;;;;;;;;;;26.40;67.30;;;;;;4178273;28;20378;-47
2023/08/20 13:09:24;;;;;;;;;;;26.40;68.10;;;;;;4180389;28;19944;-47
2023/08/20 13:12:09;;;;;;;;;;;26.40;66.70;;;;;;4192476;28;20329;-46
2023/08/20 13:14:50;;;;;;;;;;;26.40;66.50;;;;;;4170283;28;20009;-47
2023/08/20 13:17:31;;;;;;;;;;;26.40;66.20;;;;;;4186305;28;20299;-47
2023/08/20 13:20:12;;;;;;;;;;;26.50;66.10;;;;;;4189891;28;19935;-56
2023/08/20 13:22:54;;;;;;;;;;;26.50;66.00;;;;;;4191311;28;20013;-58
2023/08/20 13:25:35;;;;;;;;;;;26.50;65.80;;;;;;4189240;28;19951;-57
2023/08/20 13:28:16;;;;;;;;;;;26.40;65.50;;;;;;4189871;28;19932;-57
2023/08/20 13:30:56;;;;;;;;;;;26.40;65.20;;;;;;4173895;28;19940;-47
2023/08/20 13:33:37;;;;;;;;;;;26.40;65.30;;;;;;4169209;28;19932;-47
2023/08/20 13:36:18;;;;;;;;;;;26.40;65.30;;;;;;4167440;28;19932;-46
2023/08/20 13:39:00;;;;;;;;;;;26.40;65.10;;;;;;4173818;28;19936;-46
2023/08/20 13:41:41;;;;;;;;;;;26.40;65.90;;;;;;4173868;28;20062;-46
2023/08/20 13:44:22;;;;;;;;;;;26.40;64.90;;;;;;4187704;28;19936;-46
2023/08/20 13:47:03;;;;;;;;;;;26.40;64.90;;;;;;4189137;28;19931;-47
2023/08/20 13:49:44;;;;;;;;;;;26.40;64.90;;;;;;4179256;28;19935;-48
2023/08/20 13:52:24;;;;;;;;;;;26.30;65.30;;;;;;4189340;28;19974;-46
2023/08/20 13:55:08;;;;;;;;;;;26.30;65.90;;;;;;4191071;28;20057;-45
2023/08/20 13:57:49;;;;;;;;;;;26.30;66.00;;;;;;4178990;28;19940;-46
2023/08/20 14:00:30;;;;;;;;;;;26.20;65.90;;;;;;4189824;28;19935;-47
2023/08/20 14:03:10;;;;;;;;;;;26.20;65.40;;;;;;4173689;28;19948;-46
2023/08/20 14:05:51;;;;;;;;;;;26.20;65.60;;;;;;4173520;28;19967;-47
2023/08/20 14:08:32;;;;;;;;;;;26.20;66.80;;;;;;4172682;28;20062;-46
2023/08/20 14:11:14;;;;;;;;;;;26.20;65.50;;;;;;4174067;28;19936;-48
2023/08/20 14:13:55;;;;;;;;;;;26.20;65.40;;;;;;4191855;28;19934;-46
2023/08/20 14:16:36;;;;;;;;;;;26.20;65.30;;;;;;4206303;28;20061;-47
2023/08/20 14:19:16;;;;;;;;;;;26.20;65.40;;;;;;4200345;28;19935;-47
2023/08/20 14:21:57;;;;;;;;;;;26.20;65.40;;;;;;4195458;28;20262;-46
2023/08/20 14:24:38;;;;;;;;;;;26.10;65.40;;;;;;4195093;28;20007;-47
2023/08/20 14:27:22;;;;;;;;;;;26.20;65.40;;;;;;4173515;28;19932;-50
2023/08/20 14:30:04;;;;;;;;;;;26.10;65.40;;;;;;4183360;28;19947;-46
2023/08/20 14:32:44;;;;;;;;;;;26.10;66.10;;;;;;4189500;28;20005;-46
2023/08/20 14:35:26;;;;;;;;;;;26.20;65.40;;;;;;4172266;28;20079;-46
2023/08/20 14:38:07;;;;;;;;;;;26.10;65.30;;;;;;4173607;28;20286;-47
2023/08/20 14:40:48;;;;;;;;;;;26.10;65.20;;;;;;4187617;28;19935;-47
2023/08/20 14:43:30;;;;;;;;;;;26.20;65.30;;;;;;4206291;28;19931;-47
2023/08/20 14:46:11;;;;;;;;;;;26.20;65.20;;;;;;4178026;28;19935;-47
2023/08/20 14:48:55;;;;;;;;;;;26.20;65.00;;;;;;4194818;28;20036;-46
2023/08/20 14:51:35;;;;;;;;;;;26.20;64.90;;;;;;4206240;28;19930;-46
2023/08/20 14:54:16;;;;;;;;;;;26.20;64.70;;;;;;4189038;28;20017;-47
2023/08/20 14:56:57;;;;;;;;;;;26.20;64.70;;;;;;4179295;28;19978;-46
2023/08/20 14:59:39;;;;;;;;;;;26.20;64.90;;;;;;4185561;28;19936;-49
2023/08/20 15:02:20;;;;;;;;;;;26.20;64.70;;;;;;4188388;28;19947;-47
2023/08/20 15:05:01;;;;;;;;;;;26.20;65.00;;;;;;4199238;28;19985;-47
2023/08/20 15:07:42;;;;;;;;;;;26.10;65.10;;;;;;4205240;28;20077;-46
2023/08/20 15:10:22;;;;;;;;;;;26.10;65.00;;;;;;4203119;28;19969;-46
2023/08/20 15:13:03;;;;;;;;;;;26.10;64.80;;;;;;4175805;28;19951;-45
2023/08/20 15:15:45;;;;;;;;;;;26.10;65.00;;;;;;4172799;28;19935;-46
2023/08/20 15:18:26;;;;;;;;;;;26.10;65.00;;;;;;4180114;28;19936;-47
2023/08/20 15:21:07;;;;;;;;;;;26.10;65.00;;;;;;4168908;28;19935;-47
2023/08/20 15:23:50;;;;;;;;;;;26.20;65.00;;;;;;4172156;28;20030;-48
2023/08/20 15:26:31;;;;;;;;;;;26.20;65.00;;;;;;4178764;28;19935;-47
2023/08/20 15:29:14;;;;;;;;;;;26.20;65.90;;;;;;4186724;28;20418;-48
2023/08/20 15:31:56;;;;;;;;;;;26.20;65.00;;;;;;4188422;28;19932;-48
2023/08/20 15:34:37;;;;;;;;;;;26.20;64.70;;;;;;4186680;28;19931;-47
2023/08/20 15:37:18;;;;;;;;;;;26.30;64.60;;;;;;4188010;28;19931;-51
2023/08/20 15:39:59;;;;;;;;;;;26.30;64.50;;;;;;4204856;28;19935;-46